ADDS METAR Data

Data at: 0532 UTC 19 Jan 2018

METAR for:KHTO (East Hampton Arpt, NY, US)
Text:KHTO 190515Z AUTO 31007KT 10SM CLR M04/M09 A3001 RMK AO2 T10381090
Temperature: -3.8°C ( 25°F)
Dewpoint: -9.0°C ( 16°F) [RH = 67%]
Pressure (altimeter):30.01 inches Hg (1016.3 mb)
Winds:from the NW (310 degrees) at 8 MPH (7 knots; 3.6 m/s)
Visibility:10 or more sm (16+ km)
Ceiling:at least 12,000 feet AGL
Clouds:sky clear below 12,000 feet AGL
QC Flag:automated observation with no human augmentation